XNO35P WSSS-YPPH
Flight info
| Callsign | XNO35P |
|---|---|
| Flight time | N/A |
| Altitude | 37000 |
| Route | ANITO8B ANITO B470 PKP L764 LAMOB/N0491F390 B469 TOPIR/N0489F400 L514 AVPAL Q38 JULIM |
| Aircraft | A35K/H-SDE2E3GHIJ3J4J5LM1ORWXY/LB1D1 |
Departure
| Time | 2026-05-08 05:08 |
|---|---|
| Airport | Singapore Changi Airport (WSSS) |
Arrival
| Time | N/A |
|---|---|
| Airport | Perth International Airport (YPPH) |
| Time | Latitude | Longitude | Altitude | Speed | Heading |
|---|---|---|---|---|---|
| 2026-05-08 04:41 | 1.35153 | 103.99039 | 34 ft | 0 kts | 95° |
| 2026-05-08 04:58 | 1.35154 | 103.99026 | 32 ft | 4 kts | 96° |
| 2026-05-08 04:58 | 1.35157 | 103.98999 | 31 ft | 4 kts | 100° |
| 2026-05-08 04:59 | 1.35164 | 103.98973 | 32 ft | 4 kts | 111° |
| 2026-05-08 04:59 | 1.35176 | 103.98952 | 31 ft | 4 kts | 153° |
| 2026-05-08 04:59 | 1.35185 | 103.98948 | 31 ft | 0 kts | 177° |
| 2026-05-08 05:01 | 1.35184 | 103.98948 | 33 ft | 0 kts | 177° |
| 2026-05-08 05:01 | 1.35181 | 103.98949 | 33 ft | 1 kts | 176° |
| 2026-05-08 05:02 | 1.35152 | 103.98950 | 33 ft | 9 kts | 176° |
| 2026-05-08 05:02 | 1.35059 | 103.98959 | 33 ft | 15 kts | 174° |
| 2026-05-08 05:02 | 1.34959 | 103.98972 | 33 ft | 14 kts | 169° |
| 2026-05-08 05:02 | 1.34879 | 103.99021 | 34 ft | 13 kts | 128° |
| 2026-05-08 05:03 | 1.34850 | 103.99105 | 34 ft | 12 kts | 88° |
| 2026-05-08 05:03 | 1.34899 | 103.99154 | 34 ft | 10 kts | 26° |
| 2026-05-08 05:03 | 1.34969 | 103.99176 | 34 ft | 11 kts | 16° |
| 2026-05-08 05:03 | 1.35045 | 103.99210 | 34 ft | 14 kts | 25° |
| 2026-05-08 05:04 | 1.35151 | 103.99260 | 34 ft | 20 kts | 25° |
| 2026-05-08 05:04 | 1.35290 | 103.99323 | 35 ft | 24 kts | 23° |
| 2026-05-08 05:04 | 1.35457 | 103.99392 | 35 ft | 28 kts | 23° |
| 2026-05-08 05:04 | 1.35648 | 103.99472 | 35 ft | 31 kts | 22° |
| 2026-05-08 05:05 | 1.35848 | 103.99555 | 34 ft | 31 kts | 22° |
| 2026-05-08 05:05 | 1.36043 | 103.99638 | 34 ft | 30 kts | 23° |
| 2026-05-08 05:05 | 1.36211 | 103.99709 | 34 ft | 15 kts | 24° |
| 2026-05-08 05:05 | 1.36238 | 103.99776 | 34 ft | 11 kts | 103° |
| 2026-05-08 05:06 | 1.36214 | 103.99843 | 34 ft | 10 kts | 116° |
| 2026-05-08 05:06 | 1.36163 | 103.99874 | 34 ft | 9 kts | 172° |
| 2026-05-08 05:06 | 1.36133 | 103.99868 | 34 ft | 0 kts | 198° |
| 2026-05-08 05:07 | 1.36049 | 103.99834 | 34 ft | 43 kts | 203° |
| 2026-05-08 05:07 | 1.35552 | 103.99626 | 39 ft | 110 kts | 203° |
| 2026-05-08 05:08 | 1.34667 | 103.99251 | 41 ft | 165 kts | 201° |
| 2026-05-08 05:08 | 1.33587 | 103.98802 | 721 ft | 165 kts | 201° |
| 2026-05-08 05:08 | 1.32483 | 103.98372 | 1281 ft | 179 kts | 200° |
| 2026-05-08 05:08 | 1.31211 | 103.97914 | 1524 ft | 209 kts | 199° |
| 2026-05-08 05:09 | 1.29763 | 103.97385 | 1859 ft | 234 kts | 199° |
| 2026-05-08 05:09 | 1.28168 | 103.96780 | 2259 ft | 255 kts | 201° |
| 2026-05-08 05:09 | 1.26504 | 103.96091 | 2955 ft | 262 kts | 204° |
| 2026-05-08 05:09 | 1.24831 | 103.95340 | 3738 ft | 264 kts | 205° |
| 2026-05-08 05:10 | 1.23146 | 103.94594 | 4537 ft | 266 kts | 200° |
| 2026-05-08 05:10 | 1.19474 | 103.94703 | 5798 ft | 276 kts | 161° |
| 2026-05-08 05:10 | 1.17665 | 103.95355 | 5977 ft | 277 kts | 161° |
| 2026-05-08 05:11 | 1.15831 | 103.95957 | 5995 ft | 278 kts | 163° |
| 2026-05-08 05:11 | 1.13972 | 103.96501 | 5987 ft | 279 kts | 165° |
| 2026-05-08 05:11 | 1.12091 | 103.97017 | 5989 ft | 279 kts | 165° |
| 2026-05-08 05:11 | 1.10315 | 103.97766 | 5993 ft | 279 kts | 148° |
| 2026-05-08 05:12 | 1.08745 | 103.98894 | 5986 ft | 277 kts | 143° |
| 2026-05-08 05:12 | 1.07230 | 104.00086 | 5986 ft | 277 kts | 142° |
| 2026-05-08 05:12 | 1.05712 | 104.01279 | 5984 ft | 277 kts | 143° |
| 2026-05-08 05:12 | 1.04211 | 104.02448 | 5985 ft | 277 kts | 143° |
| 2026-05-08 05:13 | 1.02839 | 104.03795 | 5981 ft | 279 kts | 126° |
| 2026-05-08 05:13 | 1.01937 | 104.05506 | 5987 ft | 279 kts | 114° |
| 2026-05-08 05:13 | 1.01187 | 104.07295 | 5991 ft | 280 kts | 114° |
| 2026-05-08 05:13 | 1.00443 | 104.09092 | 5992 ft | 280 kts | 114° |
| 2026-05-08 05:14 | 0.99694 | 104.10887 | 5994 ft | 280 kts | 114° |
| 2026-05-08 05:14 | 0.98940 | 104.12683 | 5993 ft | 280 kts | 114° |
| 2026-05-08 05:14 | 0.98190 | 104.14478 | 6178 ft | 281 kts | 114° |
| 2026-05-08 05:14 | 0.97430 | 104.16285 | 6765 ft | 283 kts | 114° |
| 2026-05-08 05:15 | 0.96667 | 104.18093 | 7630 ft | 282 kts | 114° |
| 2026-05-08 05:15 | 0.95902 | 104.19906 | 8513 ft | 284 kts | 114° |
| 2026-05-08 05:15 | 0.95129 | 104.21735 | 9453 ft | 287 kts | 113° |
| 2026-05-08 05:15 | 0.94203 | 104.23520 | 10222 ft | 292 kts | 121° |
| 2026-05-08 05:16 | 0.93114 | 104.25295 | 10666 ft | 309 kts | 122° |
| 2026-05-08 05:16 | 0.91938 | 104.27168 | 11026 ft | 327 kts | 122° |
| 2026-05-08 05:16 | 0.90698 | 104.29146 | 11348 ft | 345 kts | 122° |
| 2026-05-08 05:16 | 0.89398 | 104.31227 | 11682 ft | 361 kts | 121° |
| 2026-05-08 05:17 | 0.88044 | 104.33398 | 12075 ft | 374 kts | 121° |
| 2026-05-08 05:17 | 0.86652 | 104.35621 | 12808 ft | 381 kts | 121° |
| 2026-05-08 05:17 | 0.85233 | 104.37871 | 13558 ft | 386 kts | 121° |
| 2026-05-08 05:17 | 0.83823 | 104.40128 | 14133 ft | 389 kts | 121° |
| 2026-05-08 05:18 | 0.82397 | 104.42435 | 14657 ft | 392 kts | 121° |
| 2026-05-08 05:18 | 0.80912 | 104.44739 | 15176 ft | 396 kts | 124° |
| 2026-05-08 05:18 | 0.79302 | 104.46981 | 15702 ft | 399 kts | 125° |
| 2026-05-08 05:18 | 0.77665 | 104.49233 | 16201 ft | 402 kts | 125° |
| 2026-05-08 05:19 | 0.76023 | 104.51512 | 16716 ft | 405 kts | 125° |
| 2026-05-08 05:19 | 0.74374 | 104.53808 | 17220 ft | 408 kts | 125° |
| 2026-05-08 05:19 | 0.72475 | 104.55924 | 17690 ft | 413 kts | 139° |
| 2026-05-08 05:19 | 0.70022 | 104.57435 | 18151 ft | 419 kts | 156° |
| 2026-05-08 05:20 | 0.67249 | 104.58369 | 18568 ft | 423 kts | 162° |
| 2026-05-08 05:20 | 0.64414 | 104.59193 | 18973 ft | 426 kts | 162° |
| 2026-05-08 05:20 | 0.61562 | 104.60021 | 19385 ft | 429 kts | 162° |
| 2026-05-08 05:20 | 0.58691 | 104.60861 | 19797 ft | 431 kts | 162° |
| 2026-05-08 05:21 | 0.55804 | 104.61711 | 20199 ft | 434 kts | 162° |
| 2026-05-08 05:21 | 0.52901 | 104.62570 | 20631 ft | 437 kts | 162° |
| 2026-05-08 05:21 | 0.49974 | 104.63439 | 21031 ft | 440 kts | 162° |
| 2026-05-08 05:21 | 0.47032 | 104.64313 | 21441 ft | 442 kts | 161° |
| 2026-05-08 05:22 | 0.44075 | 104.65197 | 21851 ft | 445 kts | 162° |
| 2026-05-08 05:22 | 0.41099 | 104.66076 | 22282 ft | 448 kts | 162° |
| 2026-05-08 05:22 | 0.38097 | 104.66962 | 22709 ft | 451 kts | 162° |
| 2026-05-08 05:22 | 0.35079 | 104.67853 | 23134 ft | 454 kts | 161° |
| 2026-05-08 05:23 | 0.32037 | 104.68752 | 23534 ft | 457 kts | 161° |
| 2026-05-08 05:23 | 0.28981 | 104.69657 | 23880 ft | 460 kts | 161° |
| 2026-05-08 05:23 | 0.25899 | 104.70569 | 24241 ft | 463 kts | 161° |
| 2026-05-08 05:23 | 0.22808 | 104.71484 | 24619 ft | 465 kts | 161° |
| 2026-05-08 05:24 | 0.19691 | 104.72407 | 24993 ft | 468 kts | 161° |
| 2026-05-08 05:24 | 0.16555 | 104.73335 | 25380 ft | 471 kts | 161° |
| 2026-05-08 05:24 | 0.13408 | 104.74270 | 25795 ft | 474 kts | 161° |
| 2026-05-08 05:24 | 0.10237 | 104.75216 | 26210 ft | 477 kts | 161° |
| 2026-05-08 05:25 | 0.07045 | 104.76162 | 26644 ft | 480 kts | 161° |
| 2026-05-08 05:25 | 0.03833 | 104.77114 | 27078 ft | 483 kts | 161° |
| 2026-05-08 05:25 | 0.00602 | 104.78073 | 27532 ft | 486 kts | 161° |
| 2026-05-08 05:25 | -0.02617 | 104.79028 | 27929 ft | 491 kts | 161° |
| 2026-05-08 05:26 | -0.05903 | 104.80004 | 28354 ft | 494 kts | 161° |
| 2026-05-08 05:26 | -0.09205 | 104.80984 | 28785 ft | 498 kts | 161° |
| 2026-05-08 05:26 | -0.12576 | 104.81985 | 29192 ft | 501 kts | 161° |
| 2026-05-08 05:26 | -0.15887 | 104.82969 | 29600 ft | 504 kts | 161° |
| 2026-05-08 05:27 | -0.19255 | 104.83969 | 29977 ft | 507 kts | 161° |
| 2026-05-08 05:27 | -0.22652 | 104.84978 | 30289 ft | 510 kts | 161° |
| 2026-05-08 05:27 | -0.26045 | 104.86031 | 30603 ft | 512 kts | 158° |
| 2026-05-08 05:27 | -0.29294 | 104.87461 | 31025 ft | 508 kts | 149° |
| 2026-05-08 05:28 | -0.32308 | 104.89285 | 31493 ft | 506 kts | 145° |
| 2026-05-08 05:28 | -0.35243 | 104.91215 | 31944 ft | 504 kts | 144° |
| 2026-05-08 05:28 | -0.38141 | 104.93186 | 32405 ft | 502 kts | 143° |
| 2026-05-08 05:28 | -0.41007 | 104.95157 | 32882 ft | 500 kts | 143° |
| 2026-05-08 05:29 | -0.43866 | 104.97125 | 33327 ft | 499 kts | 143° |
| 2026-05-08 05:29 | -0.46732 | 104.99088 | 33734 ft | 498 kts | 143° |
| 2026-05-08 05:29 | -0.49592 | 105.01038 | 34091 ft | 498 kts | 144° |
| 2026-05-08 05:29 | -0.52455 | 105.02982 | 34443 ft | 497 kts | 144° |
| 2026-05-08 05:30 | -0.55314 | 105.04918 | 34784 ft | 496 kts | 144° |
| 2026-05-08 05:30 | -0.58168 | 105.06849 | 35135 ft | 495 kts | 144° |
| 2026-05-08 05:30 | -0.61016 | 105.08775 | 35449 ft | 494 kts | 144° |
| 2026-05-08 05:30 | -0.63860 | 105.10698 | 35788 ft | 493 kts | 144° |
| 2026-05-08 05:31 | -0.66696 | 105.12616 | 36104 ft | 492 kts | 144° |
| 2026-05-08 05:31 | -0.69532 | 105.14535 | 36418 ft | 492 kts | 144° |
| 2026-05-08 05:31 | -0.72364 | 105.16451 | 36715 ft | 491 kts | 144° |
| 2026-05-08 05:31 | -0.75186 | 105.18360 | 37023 ft | 491 kts | 144° |
| 2026-05-08 05:32 | -0.78010 | 105.20272 | 37286 ft | 490 kts | 144° |
| 2026-05-08 05:32 | -0.80838 | 105.22186 | 37559 ft | 490 kts | 144° |
| 2026-05-08 05:32 | -0.83655 | 105.24092 | 37841 ft | 489 kts | 144° |
| 2026-05-08 05:32 | -0.86471 | 105.25998 | 38112 ft | 489 kts | 144° |
| 2026-05-08 05:33 | -0.89291 | 105.27906 | 38368 ft | 488 kts | 144° |
| 2026-05-08 05:33 | -0.92096 | 105.29804 | 38656 ft | 486 kts | 143° |
| 2026-05-08 05:33 | -0.94898 | 105.31700 | 38825 ft | 486 kts | 143° |
| 2026-05-08 05:34 | -1.00500 | 105.35492 | 38863 ft | 487 kts | 143° |
| 2026-05-08 05:34 | -1.06107 | 105.39288 | 38860 ft | 487 kts | 143° |
| 2026-05-08 05:35 | -1.11720 | 105.43087 | 38858 ft | 487 kts | 143° |
| 2026-05-08 05:35 | -1.17353 | 105.46900 | 38860 ft | 490 kts | 143° |
| 2026-05-08 05:36 | -1.22997 | 105.50721 | 38859 ft | 490 kts | 143° |
| 2026-05-08 05:36 | -1.28646 | 105.54545 | 38860 ft | 490 kts | 143° |
| 2026-05-08 05:37 | -1.34290 | 105.58366 | 38857 ft | 490 kts | 143° |
| 2026-05-08 05:37 | -1.39935 | 105.62187 | 38857 ft | 490 kts | 143° |
| 2026-05-08 05:38 | -1.45581 | 105.66012 | 38855 ft | 491 kts | 144° |
| 2026-05-08 05:38 | -1.51233 | 105.69839 | 38856 ft | 490 kts | 144° |
| 2026-05-08 05:39 | -1.56864 | 105.73650 | 38855 ft | 488 kts | 144° |
| 2026-05-08 05:39 | -1.62448 | 105.77432 | 38854 ft | 488 kts | 143° |
| 2026-05-08 05:40 | -1.68063 | 105.81236 | 38853 ft | 488 kts | 144° |
| 2026-05-08 05:40 | -1.73679 | 105.85039 | 38852 ft | 488 kts | 144° |
| 2026-05-08 05:41 | -1.79298 | 105.88844 | 38850 ft | 488 kts | 144° |
| 2026-05-08 05:41 | -1.84914 | 105.92649 | 38850 ft | 488 kts | 143° |
| 2026-05-08 05:42 | -1.90551 | 105.96469 | 38854 ft | 491 kts | 143° |
| 2026-05-08 05:42 | -1.96218 | 106.00308 | 38851 ft | 492 kts | 143° |
| 2026-05-08 05:43 | -2.01883 | 106.04147 | 38850 ft | 492 kts | 143° |
| 2026-05-08 05:43 | -2.07555 | 106.07989 | 38852 ft | 492 kts | 143° |
| 2026-05-08 05:44 | -2.13221 | 106.11826 | 38853 ft | 492 kts | 144° |
| 2026-05-08 05:44 | -2.19378 | 106.14842 | 38855 ft | 496 kts | 160° |
| 2026-05-08 05:45 | -2.26016 | 106.16810 | 38847 ft | 498 kts | 162° |
| 2026-05-08 05:45 | -2.32721 | 106.18608 | 38852 ft | 499 kts | 163° |
| 2026-05-08 05:46 | -2.39429 | 106.20397 | 38848 ft | 499 kts | 163° |
| 2026-05-08 05:46 | -2.46126 | 106.22207 | 38846 ft | 499 kts | 162° |
| 2026-05-08 05:47 | -2.52830 | 106.24032 | 38850 ft | 499 kts | 162° |
| 2026-05-08 05:47 | -2.59525 | 106.25857 | 38846 ft | 500 kts | 163° |
| 2026-05-08 05:48 | -2.66210 | 106.27678 | 38844 ft | 501 kts | 163° |
| 2026-05-08 05:48 | -2.72944 | 106.29512 | 38847 ft | 502 kts | 163° |
| 2026-05-08 05:49 | -2.79675 | 106.31345 | 38846 ft | 502 kts | 163° |
| 2026-05-08 05:49 | -2.86413 | 106.33181 | 38844 ft | 502 kts | 163° |
| 2026-05-08 05:50 | -2.93152 | 106.35017 | 38853 ft | 502 kts | 162° |
| 2026-05-08 05:50 | -2.99914 | 106.36860 | 38847 ft | 505 kts | 162° |
| 2026-05-08 05:51 | -3.06710 | 106.38712 | 38850 ft | 506 kts | 162° |
| 2026-05-08 05:51 | -3.13499 | 106.40562 | 38845 ft | 506 kts | 162° |
| 2026-05-08 05:52 | -3.20290 | 106.42413 | 38846 ft | 506 kts | 162° |
| 2026-05-08 05:52 | -3.27075 | 106.44264 | 38845 ft | 506 kts | 162° |
| 2026-05-08 05:53 | -3.33867 | 106.46116 | 38849 ft | 506 kts | 162° |
| 2026-05-08 05:53 | -3.40655 | 106.47967 | 38846 ft | 506 kts | 162° |
| 2026-05-08 05:54 | -3.47450 | 106.49820 | 38844 ft | 506 kts | 162° |
| 2026-05-08 05:54 | -3.54235 | 106.51671 | 38846 ft | 506 kts | 162° |
| 2026-05-08 05:55 | -3.59883 | 106.53212 | 38848 ft | 506 kts | 162° |
| 2026-05-08 05:55 | -3.66670 | 106.55064 | 38841 ft | 505 kts | 162° |
| 2026-05-08 05:56 | -3.73446 | 106.56913 | 38844 ft | 504 kts | 162° |
| 2026-05-08 05:56 | -3.80217 | 106.58762 | 38844 ft | 504 kts | 162° |
| 2026-05-08 05:57 | -3.86985 | 106.60610 | 38843 ft | 504 kts | 162° |
| 2026-05-08 05:57 | -3.93751 | 106.62457 | 38844 ft | 504 kts | 162° |
| 2026-05-08 05:58 | -4.00516 | 106.64305 | 38840 ft | 504 kts | 162° |
| 2026-05-08 05:58 | -4.07295 | 106.66157 | 38840 ft | 506 kts | 163° |
| 2026-05-08 05:59 | -4.14039 | 106.68000 | 38843 ft | 506 kts | 163° |
| 2026-05-08 05:59 | -4.20838 | 106.69857 | 38840 ft | 506 kts | 163° |
| 2026-05-08 06:00 | -4.27643 | 106.71717 | 38837 ft | 507 kts | 163° |
| 2026-05-08 06:00 | -4.34447 | 106.73577 | 38844 ft | 507 kts | 163° |
| 2026-05-08 06:01 | -4.41247 | 106.75436 | 38844 ft | 506 kts | 163° |
| 2026-05-08 06:01 | -4.48033 | 106.77291 | 38842 ft | 505 kts | 163° |
| 2026-05-08 06:02 | -4.54808 | 106.79144 | 38839 ft | 505 kts | 163° |
| 2026-05-08 06:02 | -4.61588 | 106.80999 | 38841 ft | 505 kts | 163° |
| 2026-05-08 06:03 | -4.68362 | 106.82853 | 38840 ft | 505 kts | 163° |
| 2026-05-08 06:03 | -4.75137 | 106.84710 | 38845 ft | 505 kts | 163° |
| 2026-05-08 06:04 | -4.81901 | 106.86553 | 38836 ft | 503 kts | 164° |
| 2026-05-08 06:04 | -4.88654 | 106.88381 | 38839 ft | 503 kts | 164° |
| 2026-05-08 06:05 | -4.95413 | 106.90214 | 38828 ft | 503 kts | 164° |
| 2026-05-08 06:05 | -5.02161 | 106.92048 | 38839 ft | 503 kts | 164° |
| 2026-05-08 06:06 | -5.08916 | 106.93886 | 38828 ft | 503 kts | 164° |
| 2026-05-08 06:06 | -5.15665 | 106.95722 | 38833 ft | 503 kts | 163° |
| 2026-05-08 06:07 | -5.22423 | 106.97561 | 38833 ft | 503 kts | 163° |
| 2026-05-08 06:07 | -5.29177 | 106.99400 | 38833 ft | 503 kts | 163° |
| 2026-05-08 06:08 | -5.35884 | 107.01225 | 38825 ft | 503 kts | 163° |
| 2026-05-08 06:08 | -5.42645 | 107.03066 | 38836 ft | 503 kts | 163° |
| 2026-05-08 06:09 | -5.49400 | 107.04906 | 38830 ft | 503 kts | 163° |
| 2026-05-08 06:09 | -5.56144 | 107.06743 | 38815 ft | 502 kts | 163° |
| 2026-05-08 06:10 | -5.62882 | 107.08579 | 38829 ft | 502 kts | 163° |
| 2026-05-08 06:10 | -5.69625 | 107.10417 | 38828 ft | 502 kts | 163° |
| 2026-05-08 06:11 | -5.76359 | 107.12253 | 38826 ft | 502 kts | 163° |
| 2026-05-08 06:11 | -5.83103 | 107.14092 | 38825 ft | 502 kts | 164° |
| 2026-05-08 06:12 | -5.89844 | 107.15931 | 38822 ft | 502 kts | 164° |
| 2026-05-08 06:12 | -5.96574 | 107.17767 | 38808 ft | 502 kts | 164° |
| 2026-05-08 06:13 | -6.03313 | 107.19606 | 38822 ft | 502 kts | 164° |
| 2026-05-08 06:13 | -6.10000 | 107.21431 | 38823 ft | 502 kts | 164° |
| 2026-05-08 06:14 | -6.16772 | 107.23280 | 38816 ft | 502 kts | 164° |
| 2026-05-08 06:14 | -6.23521 | 107.25124 | 38817 ft | 504 kts | 164° |
| 2026-05-08 06:15 | -6.30243 | 107.26960 | 38822 ft | 504 kts | 164° |
| 2026-05-08 06:15 | -6.37013 | 107.28810 | 38809 ft | 504 kts | 164° |
| 2026-05-08 06:16 | -6.43781 | 107.30659 | 38833 ft | 504 kts | 164° |
| 2026-05-08 06:16 | -6.50553 | 107.32511 | 38833 ft | 504 kts | 164° |
| 2026-05-08 06:17 | -6.60698 | 107.35286 | 38833 ft | 503 kts | 164° |
| 2026-05-08 06:17 | -6.67453 | 107.37134 | 38833 ft | 503 kts | 164° |
| 2026-05-08 06:18 | -6.74203 | 107.38981 | 38863 ft | 503 kts | 164° |
| 2026-05-08 06:18 | -6.80952 | 107.40829 | 38860 ft | 504 kts | 164° |
| 2026-05-08 06:19 | -6.87718 | 107.42681 | 38873 ft | 504 kts | 164° |
| 2026-05-08 06:19 | -6.94485 | 107.44535 | 38878 ft | 504 kts | 164° |
| 2026-05-08 06:20 | -7.01258 | 107.46390 | 38870 ft | 505 kts | 164° |
| 2026-05-08 06:20 | -7.08031 | 107.48247 | 38874 ft | 505 kts | 164° |
| 2026-05-08 06:21 | -7.14807 | 107.50105 | 38887 ft | 505 kts | 164° |
| 2026-05-08 06:21 | -7.21582 | 107.51963 | 38872 ft | 505 kts | 164° |
| 2026-05-08 06:22 | -7.28352 | 107.53820 | 38887 ft | 503 kts | 165° |
| 2026-05-08 06:22 | -7.35087 | 107.55668 | 38874 ft | 501 kts | 164° |
| 2026-05-08 06:23 | -7.41795 | 107.57510 | 38875 ft | 500 kts | 165° |
| 2026-05-08 06:23 | -7.48513 | 107.59354 | 38877 ft | 500 kts | 164° |
| 2026-05-08 06:24 | -7.55234 | 107.61200 | 38854 ft | 501 kts | 165° |
| 2026-05-08 06:24 | -7.61948 | 107.63045 | 38854 ft | 501 kts | 164° |
| 2026-05-08 06:25 | -7.68688 | 107.64897 | 38836 ft | 503 kts | 164° |
| 2026-05-08 06:25 | -7.75448 | 107.66756 | 38850 ft | 504 kts | 164° |
| 2026-05-08 06:26 | -7.82218 | 107.68618 | 38829 ft | 504 kts | 164° |
| 2026-05-08 06:26 | -7.88972 | 107.70476 | 38842 ft | 503 kts | 164° |
| 2026-05-08 06:27 | -7.95738 | 107.72339 | 38843 ft | 503 kts | 165° |
| 2026-05-08 06:27 | -8.02477 | 107.74195 | 38846 ft | 503 kts | 165° |
| 2026-05-08 06:28 | -8.09217 | 107.76051 | 38836 ft | 501 kts | 165° |
| 2026-05-08 06:28 | -8.15941 | 107.77903 | 38834 ft | 501 kts | 165° |
| 2026-05-08 06:29 | -8.22668 | 107.79757 | 38831 ft | 501 kts | 165° |
| 2026-05-08 06:29 | -8.29389 | 107.81610 | 38829 ft | 501 kts | 165° |
| 2026-05-08 06:30 | -8.36053 | 107.83454 | 38837 ft | 498 kts | 166° |
| 2026-05-08 06:30 | -8.42696 | 107.85345 | 38840 ft | 496 kts | 166° |
| 2026-05-08 06:31 | -8.49341 | 107.87251 | 38838 ft | 496 kts | 165° |
| 2026-05-08 06:31 | -8.55970 | 107.89148 | 38842 ft | 496 kts | 165° |
| 2026-05-08 06:32 | -8.62616 | 107.91044 | 38841 ft | 496 kts | 165° |
| 2026-05-08 06:32 | -8.69253 | 107.92939 | 38842 ft | 496 kts | 166° |
| 2026-05-08 06:33 | -8.75879 | 107.94829 | 38844 ft | 495 kts | 166° |
| 2026-05-08 06:33 | -8.82487 | 107.96717 | 38843 ft | 496 kts | 166° |
| 2026-05-08 06:34 | -8.89122 | 107.98612 | 38847 ft | 496 kts | 166° |
| 2026-05-08 06:34 | -8.95757 | 108.00509 | 38845 ft | 496 kts | 166° |
| 2026-05-08 06:35 | -9.02402 | 108.02408 | 38844 ft | 495 kts | 166° |
| 2026-05-08 06:35 | -9.09032 | 108.04305 | 38848 ft | 495 kts | 166° |
| 2026-05-08 06:36 | -9.15669 | 108.06204 | 38845 ft | 495 kts | 166° |
| 2026-05-08 06:36 | -9.22300 | 108.08102 | 38845 ft | 496 kts | 166° |
| 2026-05-08 06:37 | -9.28937 | 108.10002 | 38846 ft | 495 kts | 166° |
| 2026-05-08 06:37 | -9.35574 | 108.11904 | 38848 ft | 496 kts | 166° |
| 2026-05-08 06:38 | -9.42203 | 108.13804 | 38847 ft | 495 kts | 166° |
| 2026-05-08 06:38 | -9.48794 | 108.15693 | 38844 ft | 495 kts | 166° |
| 2026-05-08 06:39 | -9.55467 | 108.17607 | 38847 ft | 495 kts | 166° |
| 2026-05-08 06:39 | -9.62053 | 108.19497 | 38844 ft | 495 kts | 166° |
| 2026-05-08 06:40 | -9.68692 | 108.21402 | 38840 ft | 495 kts | 166° |
| 2026-05-08 06:40 | -9.75316 | 108.23305 | 38843 ft | 494 kts | 166° |
| 2026-05-08 06:41 | -9.81926 | 108.25204 | 38847 ft | 494 kts | 166° |
| 2026-05-08 06:41 | -9.88543 | 108.27105 | 38848 ft | 494 kts | 166° |
| 2026-05-08 06:42 | -9.95154 | 108.29006 | 38850 ft | 494 kts | 166° |
| 2026-05-08 06:42 | -10.01773 | 108.30910 | 38848 ft | 494 kts | 166° |
| 2026-05-08 06:43 | -10.07268 | 108.32491 | 38851 ft | 495 kts | 166° |
| 2026-05-08 06:43 | -10.13924 | 108.34406 | 38851 ft | 499 kts | 166° |
| 2026-05-08 06:44 | -10.20599 | 108.36328 | 38850 ft | 499 kts | 166° |
| 2026-05-08 06:44 | -10.27270 | 108.38251 | 38850 ft | 499 kts | 166° |
| 2026-05-08 06:45 | -10.33960 | 108.40180 | 38850 ft | 499 kts | 166° |
| 2026-05-08 06:45 | -10.40637 | 108.42105 | 38851 ft | 499 kts | 166° |
| 2026-05-08 06:46 | -10.47322 | 108.44034 | 38854 ft | 499 kts | 167° |
| 2026-05-08 06:46 | -10.54011 | 108.45965 | 38854 ft | 500 kts | 167° |
| 2026-05-08 06:47 | -10.60706 | 108.47898 | 38851 ft | 500 kts | 167° |
| 2026-05-08 06:47 | -10.67394 | 108.49830 | 38854 ft | 500 kts | 167° |
| 2026-05-08 06:48 | -10.74091 | 108.51765 | 38856 ft | 500 kts | 166° |
| 2026-05-08 06:48 | -10.80796 | 108.53703 | 38851 ft | 501 kts | 166° |
| 2026-05-08 06:49 | -10.87499 | 108.55643 | 38852 ft | 501 kts | 166° |
| 2026-05-08 06:49 | -10.94217 | 108.57587 | 38857 ft | 501 kts | 166° |
| 2026-05-08 06:50 | -11.00929 | 108.59531 | 38856 ft | 502 kts | 166° |
| 2026-05-08 06:50 | -11.07641 | 108.61476 | 38856 ft | 502 kts | 166° |
| 2026-05-08 06:51 | -11.14339 | 108.63418 | 38856 ft | 499 kts | 167° |
| 2026-05-08 06:51 | -11.21010 | 108.65352 | 38856 ft | 498 kts | 167° |
| 2026-05-08 06:52 | -11.27638 | 108.67275 | 38857 ft | 498 kts | 167° |
| 2026-05-08 06:52 | -11.34293 | 108.69206 | 38857 ft | 498 kts | 167° |
| 2026-05-08 06:53 | -11.40962 | 108.71142 | 38856 ft | 498 kts | 167° |
| 2026-05-08 06:53 | -11.47624 | 108.73079 | 38857 ft | 498 kts | 167° |
| 2026-05-08 06:54 | -11.54294 | 108.75018 | 38857 ft | 498 kts | 167° |
| 2026-05-08 06:54 | -11.60965 | 108.76957 | 38856 ft | 498 kts | 167° |
| 2026-05-08 06:55 | -11.67631 | 108.78897 | 38857 ft | 497 kts | 167° |
| 2026-05-08 06:55 | -11.74275 | 108.80832 | 38857 ft | 496 kts | 167° |
| 2026-05-08 06:56 | -11.80914 | 108.82766 | 38858 ft | 497 kts | 168° |
| 2026-05-08 06:56 | -11.87559 | 108.84701 | 38861 ft | 497 kts | 168° |
| 2026-05-08 06:57 | -11.94213 | 108.86642 | 38863 ft | 497 kts | 168° |
| 2026-05-08 06:57 | -12.00867 | 108.88584 | 38862 ft | 497 kts | 168° |
| 2026-05-08 06:58 | -12.07461 | 108.90767 | 38860 ft | 499 kts | 165° |
| 2026-05-08 06:58 | -12.14017 | 108.93122 | 38860 ft | 499 kts | 165° |
| 2026-05-08 06:59 | -12.20562 | 108.95445 | 38860 ft | 499 kts | 165° |
| 2026-05-08 06:59 | -12.27123 | 108.97733 | 38870 ft | 498 kts | 165° |
| 2026-05-08 07:00 | -12.33690 | 109.00009 | 38865 ft | 498 kts | 165° |
| 2026-05-08 07:00 | -12.40261 | 109.02288 | 38868 ft | 498 kts | 165° |
| 2026-05-08 07:01 | -12.46822 | 109.04566 | 38871 ft | 498 kts | 165° |
| 2026-05-08 07:01 | -12.53371 | 109.06843 | 38868 ft | 496 kts | 165° |
| 2026-05-08 07:02 | -12.59901 | 109.09113 | 38861 ft | 496 kts | 165° |
| 2026-05-08 07:02 | -12.66434 | 109.11386 | 38860 ft | 496 kts | 165° |
| 2026-05-08 07:03 | -12.72969 | 109.13660 | 38866 ft | 495 kts | 166° |
| 2026-05-08 07:03 | -12.79493 | 109.15933 | 38870 ft | 495 kts | 166° |
| 2026-05-08 07:04 | -12.86029 | 109.18211 | 38870 ft | 496 kts | 166° |
| 2026-05-08 07:04 | -12.92515 | 109.20471 | 38874 ft | 496 kts | 166° |
| 2026-05-08 07:05 | -12.99049 | 109.22751 | 38869 ft | 496 kts | 166° |
| 2026-05-08 07:05 | -13.05578 | 109.25030 | 38874 ft | 496 kts | 166° |
| 2026-05-08 07:06 | -13.12109 | 109.27311 | 38880 ft | 496 kts | 166° |
| 2026-05-08 07:06 | -13.18640 | 109.29594 | 38882 ft | 496 kts | 166° |
| 2026-05-08 07:07 | -13.25171 | 109.31877 | 38877 ft | 496 kts | 166° |
| 2026-05-08 07:07 | -13.31701 | 109.34161 | 38870 ft | 496 kts | 166° |
| 2026-05-08 07:08 | -13.38230 | 109.36447 | 38877 ft | 496 kts | 166° |
| 2026-05-08 07:08 | -13.44754 | 109.38732 | 38893 ft | 496 kts | 166° |
| 2026-05-08 07:09 | -13.51278 | 109.41018 | 38874 ft | 495 kts | 166° |
| 2026-05-08 07:09 | -13.57804 | 109.43307 | 38875 ft | 495 kts | 166° |
| 2026-05-08 07:10 | -13.64327 | 109.45595 | 38873 ft | 495 kts | 166° |
| 2026-05-08 07:10 | -13.70844 | 109.47883 | 38882 ft | 495 kts | 166° |
| 2026-05-08 07:11 | -13.77368 | 109.50175 | 38890 ft | 495 kts | 166° |
| 2026-05-08 07:11 | -13.83888 | 109.52466 | 38880 ft | 495 kts | 166° |
| 2026-05-08 07:12 | -13.90411 | 109.54760 | 38879 ft | 495 kts | 166° |
| 2026-05-08 07:12 | -13.96936 | 109.57057 | 38894 ft | 495 kts | 166° |
| 2026-05-08 07:13 | -14.03412 | 109.59337 | 38886 ft | 495 kts | 166° |
| 2026-05-08 07:13 | -14.09933 | 109.61634 | 38890 ft | 495 kts | 166° |